sensor_id;sensor_type;location;lat;lon;timestamp;P1;durP1;ratioP1;P2;durP2;ratioP2
27666;SDS011;15074;50.940;5.282;2024-03-25T00:00:11;11.85;;;5.90;;
27666;SDS011;15074;50.940;5.282;2024-03-25T00:02:38;11.83;;;5.87;;
27666;SDS011;15074;50.940;5.282;2024-03-25T00:05:05;11.63;;;5.93;;
27666;SDS011;15074;50.940;5.282;2024-03-25T00:07:34;18.05;;;5.30;;
27666;SDS011;15074;50.940;5.282;2024-03-25T00:10:00;8.63;;;6.35;;
27666;SDS011;15074;50.940;5.282;2024-03-25T00:12:26;14.13;;;7.65;;
27666;SDS011;15074;50.940;5.282;2024-03-25T00:14:51;11.88;;;6.65;;
27666;SDS011;15074;50.940;5.282;2024-03-25T00:17:17;11.70;;;6.22;;
27666;SDS011;15074;50.940;5.282;2024-03-25T00:19:44;14.93;;;7.03;;
27666;SDS011;15074;50.940;5.282;2024-03-25T00:22:15;20.20;;;6.68;;
27666;SDS011;15074;50.940;5.282;2024-03-25T00:24:47;17.70;;;6.90;;
27666;SDS011;15074;50.940;5.282;2024-03-25T00:27:14;13.38;;;7.10;;
27666;SDS011;15074;50.940;5.282;2024-03-25T00:29:40;15.73;;;8.35;;
27666;SDS011;15074;50.940;5.282;2024-03-25T00:32:06;15.32;;;8.52;;
27666;SDS011;15074;50.940;5.282;2024-03-25T00:34:32;18.60;;;7.75;;
27666;SDS011;15074;50.940;5.282;2024-03-25T00:36:58;14.38;;;7.97;;
27666;SDS011;15074;50.940;5.282;2024-03-25T00:39:24;12.32;;;7.38;;
27666;SDS011;15074;50.940;5.282;2024-03-25T00:41:54;11.27;;;7.82;;
27666;SDS011;15074;50.940;5.282;2024-03-25T00:44:19;13.23;;;8.60;;
27666;SDS011;15074;50.940;5.282;2024-03-25T00:46:45;15.30;;;9.52;;
27666;SDS011;15074;50.940;5.282;2024-03-25T00:49:11;15.95;;;7.72;;
27666;SDS011;15074;50.940;5.282;2024-03-25T00:51:37;15.95;;;8.55;;
27666;SDS011;15074;50.940;5.282;2024-03-25T00:54:03;11.88;;;8.98;;
27666;SDS011;15074;50.940;5.282;2024-03-25T00:56:29;15.57;;;7.68;;
27666;SDS011;15074;50.940;5.282;2024-03-25T00:58:56;15.40;;;8.23;;
27666;SDS011;15074;50.940;5.282;2024-03-25T01:01:23;14.67;;;8.30;;
27666;SDS011;15074;50.940;5.282;2024-03-25T01:03:49;15.40;;;8.93;;
27666;SDS011;15074;50.940;5.282;2024-03-25T01:06:14;14.02;;;8.40;;
27666;SDS011;15074;50.940;5.282;2024-03-25T01:08:40;11.68;;;8.40;;
27666;SDS011;15074;50.940;5.282;2024-03-25T01:11:06;19.27;;;8.82;;
27666;SDS011;15074;50.940;5.282;2024-03-25T01:13:31;15.73;;;8.45;;
27666;SDS011;15074;50.940;5.282;2024-03-25T01:15:57;11.68;;;8.40;;
27666;SDS011;15074;50.940;5.282;2024-03-25T01:18:22;15.60;;;8.88;;
27666;SDS011;15074;50.940;5.282;2024-03-25T01:20:48;12.48;;;7.80;;
27666;SDS011;15074;50.940;5.282;2024-03-25T01:23:14;17.42;;;7.63;;
27666;SDS011;15074;50.940;5.282;2024-03-25T01:25:40;9.85;;;7.32;;
27666;SDS011;15074;50.940;5.282;2024-03-25T01:28:06;15.60;;;8.73;;
27666;SDS011;15074;50.940;5.282;2024-03-25T01:30:32;10.15;;;7.55;;
27666;SDS011;15074;50.940;5.282;2024-03-25T01:33:00;18.48;;;8.65;;
27666;SDS011;15074;50.940;5.282;2024-03-25T01:35:26;17.60;;;8.32;;
27666;SDS011;15074;50.940;5.282;2024-03-25T01:37:52;9.95;;;7.43;;
27666;SDS011;15074;50.940;5.282;2024-03-25T01:40:18;11.73;;;7.70;;
27666;SDS011;15074;50.940;5.282;2024-03-25T01:42:44;12.75;;;7.88;;
27666;SDS011;15074;50.940;5.282;2024-03-25T01:45:19;19.15;;;7.72;;
27666;SDS011;15074;50.940;5.282;2024-03-25T01:47:45;21.95;;;7.82;;
27666;SDS011;15074;50.940;5.282;2024-03-25T01:50:11;14.52;;;7.90;;
27666;SDS011;15074;50.940;5.282;2024-03-25T01:52:37;13.63;;;7.68;;
27666;SDS011;15074;50.940;5.282;2024-03-25T01:55:03;12.90;;;8.00;;
27666;SDS011;15074;50.940;5.282;2024-03-25T01:57:30;14.60;;;7.03;;
27666;SDS011;15074;50.940;5.282;2024-03-25T01:59:56;10.75;;;7.00;;
27666;SDS011;15074;50.940;5.282;2024-03-25T02:02:22;13.88;;;6.55;;
27666;SDS011;15074;50.940;5.282;2024-03-25T02:04:48;9.77;;;6.43;;
27666;SDS011;15074;50.940;5.282;2024-03-25T02:07:14;7.70;;;6.40;;
27666;SDS011;15074;50.940;5.282;2024-03-25T02:09:41;10.57;;;7.38;;
27666;SDS011;15074;50.940;5.282;2024-03-25T02:12:07;15.68;;;7.80;;
27666;SDS011;15074;50.940;5.282;2024-03-25T02:14:34;9.48;;;6.70;;
27666;SDS011;15074;50.940;5.282;2024-03-25T02:16:59;9.52;;;6.68;;
27666;SDS011;15074;50.940;5.282;2024-03-25T02:19:26;10.18;;;6.10;;
27666;SDS011;15074;50.940;5.282;2024-03-25T02:21:53;9.77;;;5.95;;
27666;SDS011;15074;50.940;5.282;2024-03-25T02:24:18;9.10;;;5.95;;
27666;SDS011;15074;50.940;5.282;2024-03-25T02:26:48;8.68;;;6.45;;
27666;SDS011;15074;50.940;5.282;2024-03-25T02:29:13;11.07;;;6.55;;
27666;SDS011;15074;50.940;5.282;2024-03-25T02:31:39;8.13;;;5.78;;
27666;SDS011;15074;50.940;5.282;2024-03-25T02:34:05;15.77;;;5.88;;
27666;SDS011;15074;50.940;5.282;2024-03-25T02:36:30;7.90;;;5.70;;
27666;SDS011;15074;50.940;5.282;2024-03-25T02:38:56;8.55;;;6.28;;
27666;SDS011;15074;50.940;5.282;2024-03-25T02:41:23;10.35;;;6.43;;
27666;SDS011;15074;50.940;5.282;2024-03-25T02:43:49;9.43;;;6.47;;
27666;SDS011;15074;50.940;5.282;2024-03-25T02:46:15;10.70;;;5.70;;
27666;SDS011;15074;50.940;5.282;2024-03-25T02:48:41;7.63;;;6.38;;
27666;SDS011;15074;50.940;5.282;2024-03-25T02:51:06;7.32;;;5.72;;
27666;SDS011;15074;50.940;5.282;2024-03-25T02:53:32;7.93;;;5.30;;
27666;SDS011;15074;50.940;5.282;2024-03-25T02:55:57;11.80;;;5.40;;
27666;SDS011;15074;50.940;5.282;2024-03-25T02:58:23;11.27;;;6.25;;
27666;SDS011;15074;50.940;5.282;2024-03-25T03:00:48;6.88;;;5.78;;
27666;SDS011;15074;50.940;5.282;2024-03-25T03:03:14;11.65;;;5.72;;
27666;SDS011;15074;50.940;5.282;2024-03-25T03:05:40;8.73;;;5.53;;
27666;SDS011;15074;50.940;5.282;2024-03-25T03:08:05;11.20;;;6.50;;
27666;SDS011;15074;50.940;5.282;2024-03-25T03:10:31;11.70;;;5.32;;
27666;SDS011;15074;50.940;5.282;2024-03-25T03:12:56;9.25;;;5.60;;
27666;SDS011;15074;50.940;5.282;2024-03-25T03:15:22;11.45;;;6.40;;
27666;SDS011;15074;50.940;5.282;2024-03-25T03:17:48;7.25;;;5.80;;
27666;SDS011;15074;50.940;5.282;2024-03-25T03:20:14;10.88;;;5.90;;
27666;SDS011;15074;50.940;5.282;2024-03-25T03:22:39;8.23;;;5.55;;
27666;SDS011;15074;50.940;5.282;2024-03-25T03:25:05;10.07;;;5.10;;
27666;SDS011;15074;50.940;5.282;2024-03-25T03:27:31;8.32;;;6.20;;
27666;SDS011;15074;50.940;5.282;2024-03-25T03:29:57;11.18;;;6.28;;
27666;SDS011;15074;50.940;5.282;2024-03-25T03:32:23;10.45;;;5.82;;
27666;SDS011;15074;50.940;5.282;2024-03-25T03:34:48;11.48;;;5.90;;
27666;SDS011;15074;50.940;5.282;2024-03-25T03:37:14;10.40;;;5.90;;
27666;SDS011;15074;50.940;5.282;2024-03-25T03:39:39;10.05;;;6.20;;
27666;SDS011;15074;50.940;5.282;2024-03-25T03:42:05;13.80;;;7.07;;
27666;SDS011;15074;50.940;5.282;2024-03-25T03:44:31;18.23;;;6.55;;
27666;SDS011;15074;50.940;5.282;2024-03-25T03:46:56;9.70;;;6.15;;
27666;SDS011;15074;50.940;5.282;2024-03-25T03:49:22;11.75;;;8.75;;
27666;SDS011;15074;50.940;5.282;2024-03-25T03:51:48;7.93;;;6.45;;
27666;SDS011;15074;50.940;5.282;2024-03-25T03:54:13;13.93;;;6.50;;
27666;SDS011;15074;50.940;5.282;2024-03-25T03:56:39;13.50;;;6.68;;
27666;SDS011;15074;50.940;5.282;2024-03-25T03:59:04;8.27;;;6.35;;
27666;SDS011;15074;50.940;5.282;2024-03-25T04:01:30;12.85;;;6.97;;
27666;SDS011;15074;50.940;5.282;2024-03-25T04:03:56;10.02;;;6.68;;
27666;SDS011;15074;50.940;5.282;2024-03-25T04:06:21;15.77;;;6.43;;
27666;SDS011;15074;50.940;5.282;2024-03-25T04:08:47;17.88;;;7.40;;
27666;SDS011;15074;50.940;5.282;2024-03-25T04:11:12;10.60;;;6.40;;
27666;SDS011;15074;50.940;5.282;2024-03-25T04:13:38;8.45;;;6.10;;
27666;SDS011;15074;50.940;5.282;2024-03-25T04:16:04;12.85;;;7.15;;
27666;SDS011;15074;50.940;5.282;2024-03-25T04:18:31;11.13;;;6.95;;
27666;SDS011;15074;50.940;5.282;2024-03-25T04:20:58;15.97;;;7.17;;
27666;SDS011;15074;50.940;5.282;2024-03-25T04:23:24;8.45;;;6.57;;
27666;SDS011;15074;50.940;5.282;2024-03-25T04:25:50;10.68;;;7.35;;
27666;SDS011;15074;50.940;5.282;2024-03-25T04:28:16;13.35;;;6.90;;
27666;SDS011;15074;50.940;5.282;2024-03-25T04:30:42;9.13;;;6.97;;
27666;SDS011;15074;50.940;5.282;2024-03-25T04:33:08;10.43;;;8.00;;
27666;SDS011;15074;50.940;5.282;2024-03-25T04:35:34;11.35;;;8.10;;
27666;SDS011;15074;50.940;5.282;2024-03-25T04:38:00;15.23;;;6.85;;
27666;SDS011;15074;50.940;5.282;2024-03-25T04:40:25;15.40;;;7.57;;
27666;SDS011;15074;50.940;5.282;2024-03-25T04:42:51;12.05;;;7.25;;
27666;SDS011;15074;50.940;5.282;2024-03-25T04:45:17;8.57;;;7.50;;
27666;SDS011;15074;50.940;5.282;2024-03-25T04:47:42;17.70;;;6.95;;
27666;SDS011;15074;50.940;5.282;2024-03-25T04:50:08;15.45;;;8.18;;
27666;SDS011;15074;50.940;5.282;2024-03-25T04:52:34;10.85;;;7.40;;
27666;SDS011;15074;50.940;5.282;2024-03-25T04:54:59;21.33;;;7.35;;
27666;SDS011;15074;50.940;5.282;2024-03-25T04:57:25;17.38;;;8.45;;
27666;SDS011;15074;50.940;5.282;2024-03-25T05:10:16;14.02;;;8.35;;
27666;SDS011;15074;50.940;5.282;2024-03-25T05:15:51;18.48;;;9.95;;
27666;SDS011;15074;50.940;5.282;2024-03-25T05:18:17;22.10;;;9.45;;
27666;SDS011;15074;50.940;5.282;2024-03-25T05:28:19;22.65;;;9.27;;
27666;SDS011;15074;50.940;5.282;2024-03-25T05:37:32;24.58;;;10.45;;
27666;SDS011;15074;50.940;5.282;2024-03-25T05:39:59;22.70;;;11.95;;
27666;SDS011;15074;50.940;5.282;2024-03-25T05:42:24;25.58;;;11.60;;
27666;SDS011;15074;50.940;5.282;2024-03-25T05:44:50;21.92;;;12.93;;
27666;SDS011;15074;50.940;5.282;2024-03-25T05:47:15;31.48;;;14.82;;
27666;SDS011;15074;50.940;5.282;2024-03-25T05:49:41;38.72;;;14.18;;
27666;SDS011;15074;50.940;5.282;2024-03-25T05:52:07;25.58;;;13.82;;
27666;SDS011;15074;50.940;5.282;2024-03-25T05:54:32;38.75;;;13.00;;
27666;SDS011;15074;50.940;5.282;2024-03-25T05:56:58;29.65;;;13.13;;
27666;SDS011;15074;50.940;5.282;2024-03-25T06:05:19;33.60;;;15.23;;
27666;SDS011;15074;50.940;5.282;2024-03-25T06:07:44;49.38;;;15.95;;
27666;SDS011;15074;50.940;5.282;2024-03-25T06:10:10;35.17;;;16.33;;
27666;SDS011;15074;50.940;5.282;2024-03-25T06:12:36;37.45;;;16.35;;
27666;SDS011;15074;50.940;5.282;2024-03-25T06:15:02;37.97;;;15.45;;
27666;SDS011;15074;50.940;5.282;2024-03-25T06:17:28;42.08;;;13.95;;
27666;SDS011;15074;50.940;5.282;2024-03-25T06:19:53;44.67;;;14.70;;
27666;SDS011;15074;50.940;5.282;2024-03-25T06:22:19;29.23;;;13.75;;
27666;SDS011;15074;50.940;5.282;2024-03-25T06:24:45;25.45;;;13.18;;
27666;SDS011;15074;50.940;5.282;2024-03-25T06:27:10;20.85;;;11.70;;
27666;SDS011;15074;50.940;5.282;2024-03-25T06:29:36;22.48;;;11.18;;
27666;SDS011;15074;50.940;5.282;2024-03-25T06:32:01;21.35;;;10.13;;
27666;SDS011;15074;50.940;5.282;2024-03-25T06:34:45;15.38;;;10.43;;
27666;SDS011;15074;50.940;5.282;2024-03-25T06:37:11;19.48;;;9.88;;
27666;SDS011;15074;50.940;5.282;2024-03-25T06:39:37;17.20;;;9.13;;
27666;SDS011;15074;50.940;5.282;2024-03-25T06:42:02;15.60;;;8.02;;
27666;SDS011;15074;50.940;5.282;2024-03-25T06:44:28;12.57;;;8.32;;
27666;SDS011;15074;50.940;5.282;2024-03-25T06:46:54;12.10;;;8.82;;
27666;SDS011;15074;50.940;5.282;2024-03-25T06:49:21;15.13;;;9.35;;
27666;SDS011;15074;50.940;5.282;2024-03-25T06:51:46;15.60;;;9.23;;
27666;SDS011;15074;50.940;5.282;2024-03-25T06:54:12;14.13;;;7.72;;
27666;SDS011;15074;50.940;5.282;2024-03-25T06:56:38;20.45;;;8.60;;
27666;SDS011;15074;50.940;5.282;2024-03-25T06:59:03;13.70;;;8.00;;
27666;SDS011;15074;50.940;5.282;2024-03-25T07:01:29;23.17;;;8.68;;
27666;SDS011;15074;50.940;5.282;2024-03-25T07:03:54;13.40;;;8.13;;
27666;SDS011;15074;50.940;5.282;2024-03-25T07:06:20;10.48;;;7.80;;
27666;SDS011;15074;50.940;5.282;2024-03-25T07:08:46;15.02;;;7.40;;
27666;SDS011;15074;50.940;5.282;2024-03-25T07:11:12;11.73;;;7.40;;
27666;SDS011;15074;50.940;5.282;2024-03-25T07:13:38;15.68;;;7.80;;
27666;SDS011;15074;50.940;5.282;2024-03-25T07:16:04;17.30;;;7.75;;
27666;SDS011;15074;50.940;5.282;2024-03-25T07:18:30;12.95;;;7.97;;
27666;SDS011;15074;50.940;5.282;2024-03-25T07:20:55;11.88;;;7.32;;
27666;SDS011;15074;50.940;5.282;2024-03-25T07:23:21;14.88;;;7.35;;
27666;SDS011;15074;50.940;5.282;2024-03-25T07:25:46;15.23;;;7.63;;
27666;SDS011;15074;50.940;5.282;2024-03-25T07:28:12;18.02;;;8.68;;
27666;SDS011;15074;50.940;5.282;2024-03-25T07:30:38;12.40;;;8.13;;
27666;SDS011;15074;50.940;5.282;2024-03-25T07:33:03;12.40;;;8.65;;
27666;SDS011;15074;50.940;5.282;2024-03-25T07:35:30;14.52;;;6.82;;
27666;SDS011;15074;50.940;5.282;2024-03-25T07:37:55;10.93;;;6.63;;
27666;SDS011;15074;50.940;5.282;2024-03-25T07:40:21;13.23;;;7.07;;
27666;SDS011;15074;50.940;5.282;2024-03-25T07:42:47;16.73;;;7.07;;
27666;SDS011;15074;50.940;5.282;2024-03-25T07:45:14;19.75;;;6.63;;
27666;SDS011;15074;50.940;5.282;2024-03-25T07:47:40;8.57;;;6.25;;
27666;SDS011;15074;50.940;5.282;2024-03-25T07:50:06;10.35;;;7.60;;
27666;SDS011;15074;50.940;5.282;2024-03-25T07:52:33;13.07;;;6.47;;
27666;SDS011;15074;50.940;5.282;2024-03-25T07:57:27;9.73;;;6.15;;
27666;SDS011;15074;50.940;5.282;2024-03-25T07:59:52;12.73;;;6.75;;
27666;SDS011;15074;50.940;5.282;2024-03-25T08:02:18;8.50;;;6.10;;
27666;SDS011;15074;50.940;5.282;2024-03-25T08:04:44;12.10;;;5.95;;
27666;SDS011;15074;50.940;5.282;2024-03-25T08:07:10;11.75;;;6.40;;
27666;SDS011;15074;50.940;5.282;2024-03-25T08:09:35;9.75;;;6.05;;
27666;SDS011;15074;50.940;5.282;2024-03-25T08:12:01;13.93;;;6.90;;
27666;SDS011;15074;50.940;5.282;2024-03-25T08:14:27;12.30;;;6.70;;
27666;SDS011;15074;50.940;5.282;2024-03-25T08:16:52;10.07;;;6.20;;
27666;SDS011;15074;50.940;5.282;2024-03-25T08:19:18;9.02;;;6.32;;
27666;SDS011;15074;50.940;5.282;2024-03-25T08:21:43;8.85;;;5.43;;
27666;SDS011;15074;50.940;5.282;2024-03-25T08:24:09;7.75;;;5.68;;
27666;SDS011;15074;50.940;5.282;2024-03-25T08:26:35;11.88;;;5.70;;
27666;SDS011;15074;50.940;5.282;2024-03-25T08:29:00;9.50;;;6.00;;
27666;SDS011;15074;50.940;5.282;2024-03-25T08:31:26;7.15;;;5.38;;
27666;SDS011;15074;50.940;5.282;2024-03-25T08:33:51;8.65;;;5.13;;
27666;SDS011;15074;50.940;5.282;2024-03-25T08:36:17;9.32;;;5.18;;
27666;SDS011;15074;50.940;5.282;2024-03-25T08:38:46;12.02;;;5.78;;
27666;SDS011;15074;50.940;5.282;2024-03-25T08:41:11;8.50;;;5.55;;
27666;SDS011;15074;50.940;5.282;2024-03-25T08:43:37;8.77;;;5.13;;
27666;SDS011;15074;50.940;5.282;2024-03-25T08:46:02;9.68;;;5.00;;
27666;SDS011;15074;50.940;5.282;2024-03-25T08:48:28;11.70;;;5.88;;
27666;SDS011;15074;50.940;5.282;2024-03-25T08:50:54;8.57;;;5.47;;
27666;SDS011;15074;50.940;5.282;2024-03-25T08:53:20;8.52;;;4.80;;
27666;SDS011;15074;50.940;5.282;2024-03-25T08:55:46;9.55;;;5.53;;
27666;SDS011;15074;50.940;5.282;2024-03-25T08:58:15;8.13;;;5.15;;
27666;SDS011;15074;50.940;5.282;2024-03-25T09:00:41;8.20;;;5.18;;
27666;SDS011;15074;50.940;5.282;2024-03-25T09:03:07;8.43;;;5.03;;
27666;SDS011;15074;50.940;5.282;2024-03-25T09:05:33;7.68;;;4.70;;
27666;SDS011;15074;50.940;5.282;2024-03-25T09:08:00;8.27;;;4.65;;
27666;SDS011;15074;50.940;5.282;2024-03-25T09:10:26;7.90;;;5.32;;
27666;SDS011;15074;50.940;5.282;2024-03-25T09:13:10;8.55;;;4.45;;
27666;SDS011;15074;50.940;5.282;2024-03-25T09:15:36;6.47;;;5.05;;
27666;SDS011;15074;50.940;5.282;2024-03-25T09:18:02;6.00;;;4.45;;
27666;SDS011;15074;50.940;5.282;2024-03-25T09:20:28;9.13;;;5.05;;
27666;SDS011;15074;50.940;5.282;2024-03-25T09:22:53;12.75;;;5.18;;
27666;SDS011;15074;50.940;5.282;2024-03-25T09:25:19;9.18;;;4.55;;
27666;SDS011;15074;50.940;5.282;2024-03-25T09:27:48;11.80;;;4.80;;
27666;SDS011;15074;50.940;5.282;2024-03-25T09:30:14;7.60;;;4.07;;
27666;SDS011;15074;50.940;5.282;2024-03-25T09:32:41;7.35;;;4.07;;
27666;SDS011;15074;50.940;5.282;2024-03-25T09:35:09;6.10;;;4.68;;
27666;SDS011;15074;50.940;5.282;2024-03-25T09:37:35;5.90;;;3.75;;
27666;SDS011;15074;50.940;5.282;2024-03-25T09:40:01;8.77;;;4.50;;
27666;SDS011;15074;50.940;5.282;2024-03-25T09:42:39;7.18;;;4.78;;
27666;SDS011;15074;50.940;5.282;2024-03-25T09:45:13;7.55;;;4.22;;
27666;SDS011;15074;50.940;5.282;2024-03-25T09:50:10;6.07;;;3.75;;
27666;SDS011;15074;50.940;5.282;2024-03-25T09:52:37;6.47;;;4.13;;
27666;SDS011;15074;50.940;5.282;2024-03-25T09:55:03;6.32;;;4.20;;
27666;SDS011;15074;50.940;5.282;2024-03-25T09:57:29;5.25;;;3.45;;
27666;SDS011;15074;50.940;5.282;2024-03-25T09:59:55;7.93;;;3.83;;
27666;SDS011;15074;50.940;5.282;2024-03-25T10:02:21;6.00;;;3.20;;
27666;SDS011;15074;50.940;5.282;2024-03-25T10:04:51;51.75;;;8.07;;
27666;SDS011;15074;50.940;5.282;2024-03-25T10:07:23;42.00;;;6.95;;
27666;SDS011;15074;50.940;5.282;2024-03-25T10:09:50;31.23;;;4.57;;
27666;SDS011;15074;50.940;5.282;2024-03-25T10:12:16;4.70;;;3.08;;
27666;SDS011;15074;50.940;5.282;2024-03-25T10:14:42;3.97;;;3.13;;
27666;SDS011;15074;50.940;5.282;2024-03-25T10:17:08;5.13;;;3.30;;
27666;SDS011;15074;50.940;5.282;2024-03-25T10:19:34;4.53;;;3.60;;
27666;SDS011;15074;50.940;5.282;2024-03-25T10:22:03;6.78;;;3.17;;
27666;SDS011;15074;50.940;5.282;2024-03-25T10:24:39;8.93;;;3.80;;
27666;SDS011;15074;50.940;5.282;2024-03-25T10:27:19;5.40;;;3.42;;
27666;SDS011;15074;50.940;5.282;2024-03-25T10:29:48;6.78;;;4.28;;
27666;SDS011;15074;50.940;5.282;2024-03-25T10:32:18;5.85;;;2.67;;
27666;SDS011;15074;50.940;5.282;2024-03-25T10:34:43;7.88;;;2.78;;
27666;SDS011;15074;50.940;5.282;2024-03-25T10:37:09;5.38;;;2.58;;
27666;SDS011;15074;50.940;5.282;2024-03-25T10:39:40;6.10;;;3.13;;
27666;SDS011;15074;50.940;5.282;2024-03-25T10:42:14;5.07;;;3.03;;
27666;SDS011;15074;50.940;5.282;2024-03-25T10:44:43;5.32;;;2.80;;
27666;SDS011;15074;50.940;5.282;2024-03-25T10:47:09;4.95;;;3.22;;
27666;SDS011;15074;50.940;5.282;2024-03-25T10:49:51;5.15;;;2.85;;
27666;SDS011;15074;50.940;5.282;2024-03-25T10:52:27;7.05;;;3.05;;
27666;SDS011;15074;50.940;5.282;2024-03-25T10:54:54;4.65;;;3.00;;
27666;SDS011;15074;50.940;5.282;2024-03-25T10:57:20;6.47;;;3.67;;
27666;SDS011;15074;50.940;5.282;2024-03-25T10:59:47;7.25;;;3.40;;
27666;SDS011;15074;50.940;5.282;2024-03-25T11:02:14;5.38;;;4.25;;
27666;SDS011;15074;50.940;5.282;2024-03-25T11:04:42;7.35;;;3.60;;
27666;SDS011;15074;50.940;5.282;2024-03-25T11:07:10;6.07;;;3.65;;
27666;SDS011;15074;50.940;5.282;2024-03-25T11:09:40;5.28;;;2.70;;
27666;SDS011;15074;50.940;5.282;2024-03-25T11:12:07;5.10;;;2.58;;
27666;SDS011;15074;50.940;5.282;2024-03-25T11:14:35;6.88;;;2.72;;
27666;SDS011;15074;50.940;5.282;2024-03-25T11:17:01;28.40;;;3.85;;
27666;SDS011;15074;50.940;5.282;2024-03-25T11:19:30;35.28;;;4.63;;
27666;SDS011;15074;50.940;5.282;2024-03-25T11:22:09;4.90;;;2.08;;
27666;SDS011;15074;50.940;5.282;2024-03-25T11:24:36;5.35;;;2.38;;
27666;SDS011;15074;50.940;5.282;2024-03-25T11:27:02;4.68;;;2.33;;
27666;SDS011;15074;50.940;5.282;2024-03-25T11:29:31;3.33;;;2.05;;
27666;SDS011;15074;50.940;5.282;2024-03-25T11:31:57;21.52;;;2.50;;
27666;SDS011;15074;50.940;5.282;2024-03-25T11:34:28;10.43;;;2.42;;
27666;SDS011;15074;50.940;5.282;2024-03-25T11:36:53;4.03;;;1.90;;
27666;SDS011;15074;50.940;5.282;2024-03-25T11:39:22;2.17;;;1.52;;
27666;SDS011;15074;50.940;5.282;2024-03-25T11:41:49;3.17;;;1.70;;
27666;SDS011;15074;50.940;5.282;2024-03-25T11:44:15;2.58;;;1.42;;
27666;SDS011;15074;50.940;5.282;2024-03-25T11:46:42;4.32;;;2.08;;
27666;SDS011;15074;50.940;5.282;2024-03-25T11:49:12;7.55;;;2.38;;
27666;SDS011;15074;50.940;5.282;2024-03-25T11:51:40;4.93;;;2.22;;
27666;SDS011;15074;50.940;5.282;2024-03-25T11:54:09;3.55;;;2.25;;
27666;SDS011;15074;50.940;5.282;2024-03-25T11:56:36;3.25;;;2.00;;
27666;SDS011;15074;50.940;5.282;2024-03-25T11:59:03;4.78;;;2.17;;
27666;SDS011;15074;50.940;5.282;2024-03-25T12:01:29;4.68;;;1.95;;
27666;SDS011;15074;50.940;5.282;2024-03-25T12:03:55;4.63;;;1.98;;
27666;SDS011;15074;50.940;5.282;2024-03-25T12:06:20;4.45;;;1.88;;
27666;SDS011;15074;50.940;5.282;2024-03-25T12:08:47;3.67;;;2.47;;
27666;SDS011;15074;50.940;5.282;2024-03-25T12:11:32;2.67;;;1.90;;
27666;SDS011;15074;50.940;5.282;2024-03-25T12:13:58;4.05;;;2.40;;
27666;SDS011;15074;50.940;5.282;2024-03-25T12:16:25;24.35;;;3.70;;
27666;SDS011;15074;50.940;5.282;2024-03-25T12:18:50;6.70;;;2.58;;
27666;SDS011;15074;50.940;5.282;2024-03-25T12:21:18;4.73;;;2.67;;
27666;SDS011;15074;50.940;5.282;2024-03-25T12:23:44;4.05;;;2.53;;
27666;SDS011;15074;50.940;5.282;2024-03-25T12:26:11;32.28;;;3.90;;
27666;SDS011;15074;50.940;5.282;2024-03-25T12:28:37;3.58;;;2.10;;
27666;SDS011;15074;50.940;5.282;2024-03-25T12:31:08;10.63;;;3.60;;
27666;SDS011;15074;50.940;5.282;2024-03-25T12:33:43;3.92;;;2.00;;
27666;SDS011;15074;50.940;5.282;2024-03-25T12:36:11;4.05;;;2.05;;
27666;SDS011;15074;50.940;5.282;2024-03-25T12:41:08;4.03;;;1.77;;
27666;SDS011;15074;50.940;5.282;2024-03-25T12:43:36;42.00;;;3.45;;
27666;SDS011;15074;50.940;5.282;2024-03-25T12:46:09;1.67;;;1.13;;
27666;SDS011;15074;50.940;5.282;2024-03-25T12:48:39;2.72;;;1.20;;
27666;SDS011;15074;50.940;5.282;2024-03-25T12:51:12;3.38;;;1.30;;
27666;SDS011;15074;50.940;5.282;2024-03-25T12:53:40;3.15;;;1.60;;
27666;SDS011;15074;50.940;5.282;2024-03-25T12:56:11;3.53;;;1.50;;
27666;SDS011;15074;50.940;5.282;2024-03-25T12:58:37;2.85;;;1.27;;
27666;SDS011;15074;50.940;5.282;2024-03-25T13:01:03;2.90;;;1.42;;
27666;SDS011;15074;50.940;5.282;2024-03-25T13:03:29;6.45;;;1.23;;
27666;SDS011;15074;50.940;5.282;2024-03-25T13:05:54;3.65;;;1.52;;
27666;SDS011;15074;50.940;5.282;2024-03-25T13:10:48;4.80;;;1.35;;
27666;SDS011;15074;50.940;5.282;2024-03-25T13:13:13;3.20;;;1.40;;
27666;SDS011;15074;50.940;5.282;2024-03-25T13:15:39;4.32;;;2.10;;
27666;SDS011;15074;50.940;5.282;2024-03-25T13:18:05;1.92;;;1.00;;
27666;SDS011;15074;50.940;5.282;2024-03-25T13:20:31;2.92;;;1.33;;
27666;SDS011;15074;50.940;5.282;2024-03-25T13:22:56;2.80;;;1.30;;
27666;SDS011;15074;50.940;5.282;2024-03-25T13:25:24;2.17;;;1.33;;
27666;SDS011;15074;50.940;5.282;2024-03-25T13:27:50;2.42;;;1.10;;
27666;SDS011;15074;50.940;5.282;2024-03-25T13:30:15;5.65;;;1.45;;
27666;SDS011;15074;50.940;5.282;2024-03-25T13:32:41;2.92;;;1.40;;
27666;SDS011;15074;50.940;5.282;2024-03-25T13:35:06;3.22;;;1.27;;
27666;SDS011;15074;50.940;5.282;2024-03-25T13:37:32;5.05;;;1.60;;
27666;SDS011;15074;50.940;5.282;2024-03-25T13:39:58;2.17;;;1.08;;
27666;SDS011;15074;50.940;5.282;2024-03-25T13:42:23;4.13;;;1.10;;
27666;SDS011;15074;50.940;5.282;2024-03-25T13:44:49;4.25;;;1.40;;
27666;SDS011;15074;50.940;5.282;2024-03-25T13:47:14;5.75;;;1.83;;
27666;SDS011;15074;50.940;5.282;2024-03-25T13:49:40;2.97;;;1.20;;
27666;SDS011;15074;50.940;5.282;2024-03-25T13:52:06;3.33;;;1.40;;
27666;SDS011;15074;50.940;5.282;2024-03-25T13:54:31;7.25;;;1.42;;
27666;SDS011;15074;50.940;5.282;2024-03-25T13:56:57;1.75;;;1.13;;
27666;SDS011;15074;50.940;5.282;2024-03-25T13:59:23;4.90;;;1.30;;
27666;SDS011;15074;50.940;5.282;2024-03-25T14:01:49;5.15;;;1.70;;
27666;SDS011;15074;50.940;5.282;2024-03-25T14:04:16;3.95;;;1.50;;
27666;SDS011;15074;50.940;5.282;2024-03-25T14:06:42;2.70;;;1.42;;
27666;SDS011;15074;50.940;5.282;2024-03-25T14:09:10;3.28;;;1.65;;
27666;SDS011;15074;50.940;5.282;2024-03-25T14:11:47;3.10;;;1.58;;
27666;SDS011;15074;50.940;5.282;2024-03-25T14:14:13;43.80;;;6.63;;
27666;SDS011;15074;50.940;5.282;2024-03-25T14:16:39;10.82;;;2.33;;
27666;SDS011;15074;50.940;5.282;2024-03-25T14:19:04;17.30;;;2.20;;
27666;SDS011;15074;50.940;5.282;2024-03-25T14:21:30;118.80;;;14.07;;
27666;SDS011;15074;50.940;5.282;2024-03-25T14:23:56;4.25;;;2.05;;
27666;SDS011;15074;50.940;5.282;2024-03-25T14:26:22;2.78;;;1.30;;
27666;SDS011;15074;50.940;5.282;2024-03-25T14:28:48;3.67;;;1.52;;
27666;SDS011;15074;50.940;5.282;2024-03-25T14:31:13;36.63;;;3.20;;
27666;SDS011;15074;50.940;5.282;2024-03-25T14:33:40;5.88;;;1.40;;
27666;SDS011;15074;50.940;5.282;2024-03-25T14:36:06;2.90;;;1.40;;
27666;SDS011;15074;50.940;5.282;2024-03-25T14:38:32;4.15;;;2.08;;
27666;SDS011;15074;50.940;5.282;2024-03-25T14:40:59;4.30;;;2.03;;
27666;SDS011;15074;50.940;5.282;2024-03-25T14:43:25;24.58;;;3.03;;
27666;SDS011;15074;50.940;5.282;2024-03-25T14:45:51;5.45;;;1.58;;
27666;SDS011;15074;50.940;5.282;2024-03-25T14:48:16;12.45;;;2.03;;
27666;SDS011;15074;50.940;5.282;2024-03-25T14:50:42;5.00;;;2.92;;
27666;SDS011;15074;50.940;5.282;2024-03-25T14:53:08;18.33;;;2.85;;
27666;SDS011;15074;50.940;5.282;2024-03-25T14:55:33;2.33;;;1.63;;
27666;SDS011;15074;50.940;5.282;2024-03-25T14:57:59;3.03;;;1.70;;
27666;SDS011;15074;50.940;5.282;2024-03-25T15:00:24;77.22;;;5.60;;
27666;SDS011;15074;50.940;5.282;2024-03-25T15:02:50;2.90;;;1.85;;
27666;SDS011;15074;50.940;5.282;2024-03-25T15:05:16;4.07;;;2.05;;
27666;SDS011;15074;50.940;5.282;2024-03-25T15:07:43;7.43;;;3.30;;
27666;SDS011;15074;50.940;5.282;2024-03-25T15:10:09;8.35;;;2.50;;
27666;SDS011;15074;50.940;5.282;2024-03-25T15:12:36;6.03;;;3.53;;
27666;SDS011;15074;50.940;5.282;2024-03-25T15:15:05;2.78;;;1.63;;
27666;SDS011;15074;50.940;5.282;2024-03-25T15:17:33;3.92;;;1.88;;
27666;SDS011;15074;50.940;5.282;2024-03-25T15:19:59;3.85;;;1.88;;